createdAt,value
2022-11-07T00:00:54.621Z,8.30
2022-11-07T00:01:54.676Z,6.60
2022-11-07T00:02:54.675Z,7.10
2022-11-07T00:03:54.613Z,9.50
2022-11-07T00:04:54.602Z,8.10
2022-11-07T00:05:54.577Z,5.80
2022-11-07T00:06:54.580Z,7.70
2022-11-07T00:07:54.525Z,7.90
2022-11-07T00:08:54.474Z,9.10
2022-11-07T00:09:54.497Z,10.40
2022-11-07T00:10:54.584Z,8.70
2022-11-07T00:11:54.498Z,8.20
2022-11-07T00:12:54.441Z,7.70
2022-11-07T00:13:54.482Z,8.70
2022-11-07T00:14:54.443Z,8.10
2022-11-07T00:15:54.447Z,6.70
2022-11-07T00:16:54.398Z,8.40
2022-11-07T00:17:54.437Z,7.80
2022-11-07T00:18:54.430Z,8.40
2022-11-07T00:19:54.412Z,9.90
2022-11-07T00:20:54.385Z,9.20
2022-11-07T00:21:54.381Z,7.20
2022-11-07T00:22:54.434Z,7.90
2022-11-07T00:23:54.305Z,7.80
2022-11-07T00:24:54.490Z,7.10
2022-11-07T00:25:54.282Z,8.40
2022-11-07T00:26:54.380Z,9.10
2022-11-07T00:27:54.297Z,7.10
2022-11-07T00:28:54.349Z,8.00
2022-11-07T00:29:54.302Z,10.80
2022-11-07T00:30:54.236Z,7.80
2022-11-07T00:31:54.252Z,7.40
2022-11-07T00:32:58.983Z,8.30
2022-11-07T00:33:56.250Z,11.00
2022-11-07T00:34:54.240Z,8.50
2022-11-07T00:35:54.308Z,9.00
2022-11-07T00:36:54.200Z,9.80
2022-11-07T00:37:54.218Z,9.40
2022-11-07T00:38:54.268Z,7.20
2022-11-07T00:39:54.204Z,10.60
2022-11-07T00:40:54.115Z,8.40
2022-11-07T00:41:54.171Z,7.80
2022-11-07T00:42:54.194Z,8.10
2022-11-07T00:43:54.115Z,8.70
2022-11-07T00:44:54.104Z,6.60
2022-11-07T00:45:54.141Z,7.50
2022-11-07T00:46:54.059Z,7.50
2022-11-07T00:47:54.445Z,10.00
2022-11-07T00:48:54.135Z,10.20
2022-11-07T00:49:54.182Z,8.70
2022-11-07T00:50:55.063Z,7.90
2022-11-07T00:51:54.039Z,11.80
2022-11-07T00:52:53.990Z,6.70
2022-11-07T00:53:54.047Z,5.90
2022-11-07T00:54:54.027Z,11.70
2022-11-07T00:55:53.996Z,8.90
2022-11-07T00:56:53.996Z,9.20
2022-11-07T00:57:53.949Z,6.80
2022-11-07T00:58:53.951Z,8.50
2022-11-07T00:59:54.027Z,8.50
2022-11-07T01:00:53.907Z,7.60
2022-11-07T01:01:54.035Z,6.10
2022-11-07T01:02:54.053Z,10.10
2022-11-07T01:03:53.955Z,7.50
2022-11-07T01:04:53.902Z,11.70
2022-11-07T01:05:53.932Z,6.10
2022-11-07T01:06:53.868Z,7.70
2022-11-07T01:07:53.834Z,7.50
2022-11-07T01:08:53.812Z,8.40
2022-11-07T01:09:53.926Z,8.20
2022-11-07T01:10:53.878Z,9.00
2022-11-07T01:11:53.935Z,10.40
2022-11-07T01:12:53.828Z,6.00
2022-11-07T01:13:53.815Z,9.90
2022-11-07T01:14:53.824Z,6.70
2022-11-07T01:15:53.776Z,7.20
2022-11-07T01:16:53.779Z,9.00
2022-11-07T01:17:53.785Z,7.30
2022-11-07T01:18:53.775Z,8.40
2022-11-07T01:19:53.713Z,12.30
2022-11-07T01:20:53.822Z,6.40
2022-11-07T01:21:53.700Z,8.80
2022-11-07T01:22:53.687Z,7.30
2022-11-07T01:23:54.529Z,8.00
2022-11-07T01:24:53.700Z,5.70
2022-11-07T01:25:53.782Z,6.00
2022-11-07T01:26:53.700Z,6.60
2022-11-07T01:27:53.627Z,7.40
2022-11-07T01:28:53.625Z,9.60
2022-11-07T01:29:53.638Z,9.30
2022-11-07T01:30:53.611Z,7.80
2022-11-07T01:31:53.623Z,7.20
2022-11-07T01:32:53.601Z,8.20
2022-11-07T01:33:54.061Z,9.40
2022-11-07T01:34:53.662Z,6.90
2022-11-07T01:35:53.597Z,9.60
2022-11-07T01:36:53.544Z,8.80
2022-11-07T01:37:53.502Z,6.00
2022-11-07T01:38:53.600Z,6.90
2022-11-07T01:39:53.501Z,8.40
2022-11-07T01:40:53.505Z,5.20
2022-11-07T01:41:53.601Z,7.70
2022-11-07T01:42:53.555Z,9.90
2022-11-07T01:43:53.501Z,8.00
2022-11-07T01:44:53.603Z,7.10
2022-11-07T01:45:53.549Z,8.60
2022-11-07T01:46:53.571Z,7.60
2022-11-07T01:47:53.446Z,6.50
2022-11-07T01:48:53.409Z,8.60
2022-11-07T01:49:53.406Z,6.20
2022-11-07T01:50:53.373Z,7.00
2022-11-07T01:51:53.530Z,6.30
2022-11-07T01:52:53.476Z,8.20
2022-11-07T01:53:53.349Z,8.30
2022-11-07T01:54:53.497Z,5.50
2022-11-07T01:55:53.369Z,7.90
2022-11-07T01:56:53.329Z,7.80
2022-11-07T01:57:53.289Z,8.30
2022-11-07T01:58:53.490Z,9.40
2022-11-07T01:59:53.341Z,5.90
2022-11-07T02:00:53.262Z,7.30
2022-11-07T02:01:53.356Z,5.70
2022-11-07T02:02:53.427Z,6.70
2022-11-07T02:03:53.263Z,6.90
2022-11-07T02:04:53.334Z,5.70
2022-11-07T02:05:53.267Z,6.60
2022-11-07T02:06:53.339Z,6.70
2022-11-07T02:07:53.270Z,6.50
2022-11-07T02:08:53.170Z,7.40
2022-11-07T02:09:53.245Z,5.80
2022-11-07T02:10:53.203Z,7.20
2022-11-07T02:11:53.267Z,6.60
2022-11-07T02:12:53.270Z,6.20
2022-11-07T02:13:53.185Z,9.30
2022-11-07T02:14:53.392Z,6.90
2022-11-07T02:15:53.095Z,6.30
2022-11-07T02:16:53.215Z,5.70
2022-11-07T02:17:53.106Z,7.40
2022-11-07T02:18:54.352Z,8.20
2022-11-07T02:19:53.082Z,7.30
2022-11-07T02:20:53.167Z,6.20
2022-11-07T02:21:53.071Z,6.80
2022-11-07T02:22:53.041Z,7.10
2022-11-07T02:23:53.015Z,7.30
2022-11-07T02:24:53.067Z,7.90
2022-11-07T02:25:52.996Z,5.40
2022-11-07T02:26:54.115Z,6.00
2022-11-07T02:27:53.010Z,6.30
2022-11-07T02:28:53.015Z,8.30
2022-11-07T02:29:52.948Z,5.90
2022-11-07T02:30:52.999Z,5.30
2022-11-07T02:31:52.959Z,5.20
2022-11-07T02:32:52.967Z,5.70
2022-11-07T02:33:52.972Z,7.30
2022-11-07T02:34:52.899Z,8.50
2022-11-07T02:35:53.036Z,6.40
2022-11-07T02:36:52.895Z,10.40
2022-11-07T02:37:52.927Z,6.30
2022-11-07T02:38:52.883Z,6.10
2022-11-07T02:39:52.847Z,7.20
2022-11-07T02:40:52.855Z,6.60
2022-11-07T02:41:53.035Z,7.60
2022-11-07T02:42:52.855Z,6.00
2022-11-07T02:43:52.824Z,8.50
2022-11-07T02:44:52.777Z,7.20
2022-11-07T02:45:52.799Z,7.40
2022-11-07T02:46:53.447Z,5.60
2022-11-07T02:47:52.841Z,7.60
2022-11-07T02:48:52.763Z,6.50
2022-11-07T02:49:52.751Z,5.40
2022-11-07T02:50:52.754Z,8.50
2022-11-07T02:51:52.696Z,5.50
2022-11-07T02:52:52.773Z,6.80
2022-11-07T02:53:52.756Z,7.20
2022-11-07T02:54:52.672Z,7.10
2022-11-07T02:55:52.716Z,6.50
2022-11-07T02:56:52.636Z,7.50
2022-11-07T02:57:52.695Z,7.70
2022-11-07T02:58:52.677Z,6.40
2022-11-07T02:59:52.896Z,7.20
2022-11-07T03:00:52.616Z,6.50
2022-11-07T03:01:52.686Z,7.80
2022-11-07T03:02:52.764Z,7.10
2022-11-07T03:03:52.557Z,5.80
2022-11-07T03:04:52.606Z,7.50
2022-11-07T03:05:52.545Z,8.70
2022-11-07T03:06:52.642Z,7.40
2022-11-07T03:07:52.529Z,6.40
2022-11-07T03:08:52.546Z,8.50
2022-11-07T03:09:52.501Z,8.40
2022-11-07T03:10:52.760Z,7.90
2022-11-07T03:11:52.725Z,7.10
2022-11-07T03:12:52.574Z,7.30
2022-11-07T03:13:52.458Z,8.20
2022-11-07T03:14:59.492Z,7.50
2022-11-07T03:15:52.446Z,8.40
2022-11-07T03:16:52.463Z,6.80
2022-11-07T03:17:52.455Z,6.40
2022-11-07T03:18:52.386Z,6.70
2022-11-07T03:19:52.490Z,7.20
2022-11-07T03:20:52.422Z,5.00
2022-11-07T03:21:52.458Z,8.50
2022-11-07T03:22:52.390Z,13.60
2022-11-07T03:23:52.394Z,6.40
2022-11-07T03:24:52.347Z,6.80
2022-11-07T03:25:52.327Z,7.80
2022-11-07T03:26:52.456Z,8.90
2022-11-07T03:27:52.318Z,8.40
2022-11-07T03:28:52.348Z,8.30
2022-11-07T03:29:52.275Z,7.20
2022-11-07T03:30:52.291Z,7.80
2022-11-07T03:31:52.288Z,8.50
2022-11-07T03:32:52.293Z,9.10
2022-11-07T03:33:52.306Z,7.80
2022-11-07T03:34:52.245Z,9.50
2022-11-07T03:35:52.401Z,8.00
2022-11-07T03:36:52.331Z,10.00
2022-11-07T03:37:52.213Z,8.80
2022-11-07T03:38:52.209Z,6.30
2022-11-07T03:39:52.187Z,9.30
2022-11-07T03:40:52.203Z,6.90
2022-11-07T03:41:52.255Z,10.90
2022-11-07T03:42:52.172Z,7.00
2022-11-07T03:43:52.111Z,9.10
2022-11-07T03:44:52.969Z,8.10
2022-11-07T03:45:52.110Z,6.80
2022-11-07T03:46:52.170Z,6.70
2022-11-07T03:47:52.199Z,6.70
2022-11-07T03:48:52.110Z,7.00
2022-11-07T03:49:52.103Z,8.30
2022-11-07T03:50:52.106Z,6.00
2022-11-07T03:51:52.966Z,9.50
2022-11-07T03:52:52.067Z,9.10
2022-11-07T03:53:52.018Z,8.90
2022-11-07T03:54:52.030Z,6.90
2022-11-07T03:55:53.837Z,7.40
2022-11-07T03:56:52.029Z,10.10
2022-11-07T03:57:51.995Z,8.40
2022-11-07T03:58:52.032Z,7.30
2022-11-07T03:59:51.992Z,9.00
2022-11-07T04:00:51.970Z,7.10
2022-11-07T04:01:52.029Z,8.70
2022-11-07T04:02:52.278Z,6.60
2022-11-07T04:03:56.044Z,9.10
2022-11-07T04:04:52.888Z,8.40
2022-11-07T04:05:51.982Z,7.10
2022-11-07T04:06:51.936Z,7.20
2022-11-07T04:07:51.940Z,9.90
2022-11-07T04:08:51.891Z,7.20
2022-11-07T04:09:51.887Z,13.20
2022-11-07T04:10:51.968Z,8.00
2022-11-07T04:11:51.830Z,7.50
2022-11-07T04:12:51.833Z,8.10
2022-11-07T04:13:51.852Z,8.00
2022-11-07T04:14:52.501Z,8.10
2022-11-07T04:15:51.901Z,8.60
2022-11-07T04:16:51.824Z,9.20
2022-11-07T04:17:51.869Z,12.10
2022-11-07T04:18:51.814Z,7.70
2022-11-07T04:19:51.736Z,10.80
2022-11-07T04:20:51.826Z,7.20
2022-11-07T04:21:52.337Z,7.70
2022-11-07T04:22:51.828Z,10.00
2022-11-07T04:23:51.693Z,8.20
2022-11-07T04:24:51.993Z,9.70
2022-11-07T04:25:51.689Z,8.20
2022-11-07T04:26:51.710Z,8.90
2022-11-07T04:27:51.809Z,9.00
2022-11-07T04:28:51.904Z,9.80
2022-11-07T04:29:51.713Z,10.00
2022-11-07T04:30:51.645Z,9.30
2022-11-07T04:31:51.625Z,9.70
2022-11-07T04:32:51.663Z,11.20
2022-11-07T04:33:51.598Z,10.50
2022-11-07T04:34:51.631Z,8.00
2022-11-07T04:35:51.585Z,9.50
2022-11-07T04:36:51.580Z,9.40
2022-11-07T04:37:51.654Z,10.50
2022-11-07T04:38:51.659Z,11.70
2022-11-07T04:39:51.537Z,9.10
2022-11-07T04:40:51.611Z,9.60
2022-11-07T04:41:51.583Z,12.80
2022-11-07T04:42:51.560Z,8.20
2022-11-07T04:43:51.581Z,10.20
2022-11-07T04:44:51.585Z,10.70
2022-11-07T04:45:52.517Z,9.90
2022-11-07T04:46:51.475Z,10.20
2022-11-07T04:47:52.428Z,9.30
2022-11-07T04:48:51.562Z,9.00
2022-11-07T04:49:51.413Z,11.20
2022-11-07T04:50:51.438Z,9.10
2022-11-07T04:51:51.447Z,11.70
2022-11-07T04:52:51.562Z,13.70
2022-11-07T04:53:51.362Z,9.10
2022-11-07T04:54:51.382Z,11.00
2022-11-07T04:55:51.403Z,10.40
2022-11-07T04:56:51.384Z,10.30
2022-11-07T04:57:51.331Z,14.20
2022-11-07T04:58:51.415Z,11.00
2022-11-07T04:59:51.378Z,12.30
2022-11-07T05:00:51.351Z,9.00
2022-11-07T05:01:51.435Z,12.50
2022-11-07T05:02:51.467Z,10.70
2022-11-07T05:03:52.298Z,14.60
2022-11-07T05:04:51.426Z,9.90
2022-11-07T05:05:51.239Z,12.80
2022-11-07T05:06:51.323Z,12.30
2022-11-07T05:07:51.259Z,12.40
2022-11-07T05:08:51.238Z,11.10
2022-11-07T05:09:51.267Z,15.70
2022-11-07T05:10:51.199Z,9.20
2022-11-07T05:11:51.197Z,10.60
2022-11-07T05:12:51.241Z,11.60
2022-11-07T05:13:52.028Z,13.70
2022-11-07T05:14:51.171Z,14.00
2022-11-07T05:15:51.183Z,13.30
2022-11-07T05:16:51.219Z,12.90
2022-11-07T05:17:51.101Z,12.70
2022-11-07T05:18:52.165Z,11.00
2022-11-07T05:19:51.097Z,12.80
2022-11-07T05:20:51.116Z,11.20
2022-11-07T05:21:51.100Z,11.90
2022-11-07T05:22:55.209Z,15.10
2022-11-07T05:23:53.124Z,10.30
2022-11-07T05:24:51.087Z,11.40
2022-11-07T05:25:51.061Z,13.70
2022-11-07T05:26:51.038Z,9.90
2022-11-07T05:27:51.059Z,12.90
2022-11-07T05:28:51.907Z,12.00
2022-11-07T05:29:51.076Z,11.30
2022-11-07T05:30:51.008Z,12.90
2022-11-07T05:31:50.990Z,15.40
2022-11-07T05:32:50.980Z,12.30
2022-11-07T05:33:50.979Z,12.60
2022-11-07T05:34:50.953Z,10.80
2022-11-07T05:35:51.001Z,9.90
2022-11-07T05:36:50.948Z,11.80
2022-11-07T05:37:50.900Z,13.80
2022-11-07T05:38:50.959Z,11.00
2022-11-07T05:39:54.878Z,14.20
2022-11-07T05:40:51.865Z,12.20
2022-11-07T05:41:50.893Z,12.40
2022-11-07T05:42:50.962Z,18.00
2022-11-07T05:43:50.886Z,17.20
2022-11-07T05:44:50.915Z,15.80
2022-11-07T05:45:50.849Z,18.30
2022-11-07T05:46:50.943Z,15.00
2022-11-07T05:47:50.875Z,13.90
2022-11-07T05:48:50.820Z,12.00
2022-11-07T05:49:50.866Z,14.50
2022-11-07T05:50:51.792Z,11.90
2022-11-07T05:51:50.751Z,13.80
2022-11-07T05:52:50.824Z,13.10
2022-11-07T05:53:50.761Z,11.30
2022-11-07T05:54:51.328Z,13.70
2022-11-07T05:55:50.832Z,16.00
2022-11-07T05:56:50.754Z,13.50
2022-11-07T05:57:50.717Z,15.50
2022-11-07T05:58:50.733Z,17.60
2022-11-07T05:59:50.729Z,12.40
2022-11-07T06:00:50.680Z,13.10
2022-11-07T06:01:51.492Z,16.70
2022-11-07T06:02:51.710Z,15.60
2022-11-07T06:03:51.457Z,14.10
2022-11-07T06:04:51.641Z,15.10
2022-11-07T06:05:50.648Z,13.80
2022-11-07T06:06:50.589Z,11.20
2022-11-07T06:07:50.573Z,15.60
2022-11-07T06:08:50.604Z,15.50
2022-11-07T06:09:50.601Z,15.40
2022-11-07T06:10:50.551Z,16.10
2022-11-07T06:11:50.592Z,15.30
2022-11-07T06:12:55.993Z,13.90
2022-11-07T06:13:52.566Z,13.20
2022-11-07T06:14:50.542Z,16.40
2022-11-07T06:15:51.578Z,17.00
2022-11-07T06:16:50.540Z,14.10
2022-11-07T06:17:50.537Z,17.90
2022-11-07T06:18:50.534Z,11.70
2022-11-07T06:19:50.485Z,14.80
2022-11-07T06:20:50.447Z,17.80
2022-11-07T06:21:50.455Z,15.00
2022-11-07T06:22:50.544Z,20.90
2022-11-07T06:23:50.467Z,16.20
2022-11-07T06:24:50.411Z,12.30
2022-11-07T06:25:50.411Z,15.10
2022-11-07T06:26:50.386Z,19.20
2022-11-07T06:27:50.421Z,15.80
2022-11-07T06:28:50.479Z,15.20
2022-11-07T06:29:51.364Z,12.30
2022-11-07T06:30:50.340Z,20.10
2022-11-07T06:31:50.362Z,16.60
2022-11-07T06:32:50.311Z,21.40
2022-11-07T06:33:50.335Z,13.40
2022-11-07T06:34:50.340Z,14.80
2022-11-07T06:35:50.364Z,14.80
2022-11-07T06:36:59.986Z,11.70
2022-11-07T06:37:52.268Z,16.90
2022-11-07T06:38:50.256Z,15.70
2022-11-07T06:39:50.295Z,16.10
2022-11-07T06:40:50.249Z,16.10
2022-11-07T06:41:50.224Z,16.50
2022-11-07T06:42:50.254Z,16.30
2022-11-07T06:43:50.201Z,14.80
2022-11-07T06:44:50.208Z,13.70
2022-11-07T06:45:50.188Z,12.80
2022-11-07T06:46:50.327Z,12.80
2022-11-07T06:47:50.319Z,18.80
2022-11-07T06:48:50.192Z,13.90
2022-11-07T06:49:50.212Z,14.50
2022-11-07T06:50:50.111Z,14.30
2022-11-07T06:51:50.120Z,18.20
2022-11-07T06:52:50.139Z,14.10
2022-11-07T06:53:50.063Z,16.10
2022-11-07T06:54:50.243Z,18.40
2022-11-07T06:55:50.100Z,14.50
2022-11-07T06:56:50.097Z,18.70
2022-11-07T06:57:50.021Z,12.70
2022-11-07T06:58:50.133Z,13.10
2022-11-07T06:59:51.816Z,16.60
2022-11-07T07:00:51.154Z,16.40
2022-11-07T07:01:50.063Z,15.10
2022-11-07T07:02:58.431Z,14.00
2022-11-07T07:03:52.109Z,14.40
2022-11-07T07:04:50.002Z,16.60
2022-11-07T07:05:50.052Z,15.40
2022-11-07T07:06:49.944Z,16.40
2022-11-07T07:07:49.953Z,19.60
2022-11-07T07:08:49.937Z,13.90
2022-11-07T07:09:49.953Z,16.10
2022-11-07T07:10:49.940Z,13.00
2022-11-07T07:11:49.934Z,18.30
2022-11-07T07:12:49.877Z,15.80
2022-11-07T07:13:49.874Z,21.30
2022-11-07T07:14:49.837Z,14.40
2022-11-07T07:15:51.428Z,18.20
2022-11-07T07:16:50.865Z,17.60
2022-11-07T07:17:49.913Z,14.50
2022-11-07T07:18:49.899Z,13.80
2022-11-07T07:19:49.869Z,18.90
2022-11-07T07:20:49.819Z,15.30
2022-11-07T07:21:49.883Z,17.70
2022-11-07T07:22:56.074Z,11.80
2022-11-07T07:23:51.779Z,14.80
2022-11-07T07:24:49.733Z,14.70
2022-11-07T07:25:49.819Z,15.40
2022-11-07T07:26:49.758Z,18.60
2022-11-07T07:27:49.759Z,19.70
2022-11-07T07:28:49.790Z,14.70
2022-11-07T07:29:49.695Z,20.80
2022-11-07T07:30:52.044Z,15.40
2022-11-07T07:31:50.690Z,15.40
2022-11-07T07:32:49.663Z,16.80
2022-11-07T07:33:49.643Z,14.50
2022-11-07T07:34:49.713Z,11.40
2022-11-07T07:35:49.768Z,13.50
2022-11-07T07:36:49.644Z,15.10
2022-11-07T07:37:49.639Z,15.40
2022-11-07T07:38:49.617Z,13.90
2022-11-07T07:39:49.719Z,14.30
2022-11-07T07:40:49.595Z,15.20
2022-11-07T07:41:49.583Z,16.10
2022-11-07T07:42:49.547Z,16.50
2022-11-07T07:43:49.547Z,11.60
2022-11-07T07:44:49.555Z,14.50
2022-11-07T07:45:49.531Z,17.00
2022-11-07T07:46:49.522Z,17.70
2022-11-07T07:47:49.501Z,13.00
2022-11-07T07:48:49.494Z,14.10
2022-11-07T07:49:49.444Z,13.10
2022-11-07T07:50:50.556Z,15.80
2022-11-07T07:51:49.536Z,14.00
2022-11-07T07:52:49.456Z,12.30
2022-11-07T07:53:49.459Z,14.80
2022-11-07T07:54:49.587Z,15.00
2022-11-07T07:55:49.410Z,15.30
2022-11-07T07:56:49.434Z,11.50
2022-11-07T07:57:49.400Z,14.70
2022-11-07T07:58:49.397Z,14.20
2022-11-07T07:59:49.401Z,10.60
2022-11-07T08:00:49.477Z,14.50
2022-11-07T08:01:55.246Z,19.70
2022-11-07T08:02:51.361Z,12.30
2022-11-07T08:04:01.496Z,15.20
2022-11-07T08:04:51.385Z,15.00
2022-11-07T08:05:49.310Z,13.10
2022-11-07T08:06:49.399Z,16.90
2022-11-07T08:07:49.333Z,13.90
2022-11-07T08:08:49.392Z,13.60
2022-11-07T08:09:49.286Z,11.00
2022-11-07T08:10:49.301Z,15.20
2022-11-07T08:11:49.298Z,15.20
2022-11-07T08:12:49.248Z,15.10
2022-11-07T08:13:49.256Z,11.80
2022-11-07T08:14:49.221Z,12.30
2022-11-07T08:15:49.254Z,12.70
2022-11-07T08:16:49.234Z,11.60
2022-11-07T08:17:49.271Z,12.90
2022-11-07T08:18:49.199Z,9.90
2022-11-07T08:19:49.171Z,9.30
2022-11-07T08:20:49.171Z,12.50
2022-11-07T08:21:49.253Z,13.00
2022-11-07T08:22:49.214Z,14.50
2022-11-07T08:23:49.147Z,16.00
2022-11-07T08:24:49.142Z,14.10
2022-11-07T08:25:49.806Z,14.10
2022-11-07T08:26:49.110Z,13.20
2022-11-07T08:27:50.038Z,13.30
2022-11-07T08:28:49.131Z,15.50
2022-11-07T08:29:49.099Z,15.80
2022-11-07T08:30:49.039Z,15.20
2022-11-07T08:31:49.051Z,13.80
2022-11-07T08:32:49.119Z,13.00
2022-11-07T08:33:49.117Z,11.60
2022-11-07T08:34:49.049Z,11.00
2022-11-07T08:35:49.022Z,14.60
2022-11-07T08:36:49.064Z,10.60
2022-11-07T08:37:49.013Z,14.00
2022-11-07T08:38:48.996Z,11.00
2022-11-07T08:39:48.986Z,12.80
2022-11-07T08:40:49.001Z,10.50
2022-11-07T08:41:48.959Z,16.70
2022-11-07T08:42:49.125Z,17.30
2022-11-07T08:43:49.147Z,12.60
2022-11-07T08:44:48.893Z,10.00
2022-11-07T08:45:48.908Z,11.90
2022-11-07T08:46:48.926Z,9.60
2022-11-07T08:47:48.901Z,9.90
2022-11-07T08:48:48.984Z,9.80
2022-11-07T08:49:48.892Z,11.70
2022-11-07T08:50:48.846Z,10.30
2022-11-07T08:51:48.904Z,13.80
2022-11-07T08:52:48.819Z,13.40
2022-11-07T08:53:48.843Z,11.30
2022-11-07T08:54:48.873Z,10.00
2022-11-07T08:55:48.783Z,12.50
2022-11-07T08:56:48.937Z,10.10
2022-11-07T08:57:48.781Z,12.20
2022-11-07T08:58:48.791Z,11.00
2022-11-07T08:59:49.766Z,12.20
2022-11-07T09:00:48.742Z,11.70
2022-11-07T09:02:28.064Z,12.50
2022-11-07T09:03:30.756Z,10.50
2022-11-07T09:03:57.605Z,16.50
2022-11-07T09:04:50.956Z,12.60
2022-11-07T09:05:48.735Z,9.60
2022-11-07T09:06:48.728Z,9.80
2022-11-07T09:07:48.677Z,12.00
2022-11-07T09:08:48.672Z,10.70
2022-11-07T09:09:48.765Z,16.50
2022-11-07T09:10:48.655Z,12.70
2022-11-07T09:11:48.684Z,11.70
2022-11-07T09:12:48.662Z,17.90
2022-11-07T09:13:48.636Z,11.30
2022-11-07T09:14:48.666Z,10.10
2022-11-07T09:15:51.568Z,11.20
2022-11-07T09:16:49.634Z,11.30
2022-11-07T09:17:49.420Z,11.80
2022-11-07T09:18:48.571Z,12.20
2022-11-07T09:19:48.541Z,12.60
2022-11-07T09:20:48.545Z,13.10
2022-11-07T09:21:48.564Z,12.40
2022-11-07T09:22:48.532Z,14.90
2022-11-07T09:23:48.527Z,12.20
2022-11-07T09:24:48.593Z,12.50
2022-11-07T09:25:48.483Z,12.20
2022-11-07T09:26:48.689Z,11.10
2022-11-07T09:27:48.508Z,8.70
2022-11-07T09:28:52.142Z,14.80
2022-11-07T09:29:49.457Z,15.50
2022-11-07T09:30:48.685Z,11.80
2022-11-07T09:31:48.407Z,10.60
2022-11-07T09:32:48.467Z,12.40
2022-11-07T09:33:48.485Z,8.90
2022-11-07T09:34:53.911Z,10.00
2022-11-07T09:35:50.400Z,12.50
2022-11-07T09:36:48.413Z,13.70
2022-11-07T09:37:48.477Z,10.40
2022-11-07T09:38:48.458Z,10.90
2022-11-07T09:39:48.414Z,10.40
2022-11-07T09:40:48.372Z,12.40
2022-11-07T09:41:48.421Z,13.60
2022-11-07T09:42:48.296Z,12.80
2022-11-07T09:43:48.325Z,9.40
2022-11-07T09:44:48.264Z,8.50
2022-11-07T09:45:48.944Z,13.90
2022-11-07T09:46:48.310Z,11.10
2022-11-07T09:47:48.565Z,10.10
2022-11-07T09:48:48.363Z,12.90
2022-11-07T09:49:48.256Z,14.70
2022-11-07T09:50:48.241Z,11.80
2022-11-07T09:51:48.820Z,10.50
2022-11-07T09:52:48.279Z,15.20
2022-11-07T09:53:48.257Z,10.60
2022-11-07T09:54:48.223Z,10.70
2022-11-07T09:55:48.247Z,13.20
2022-11-07T09:56:48.185Z,15.00
2022-11-07T09:57:48.264Z,9.60
2022-11-07T09:58:48.241Z,8.70
2022-11-07T09:59:48.221Z,10.20
2022-11-07T10:00:48.190Z,9.80
2022-11-07T10:01:48.410Z,13.30
2022-11-07T10:02:48.443Z,10.80
2022-11-07T10:04:50.131Z,13.90
2022-11-07T10:05:48.083Z,10.80
2022-11-07T10:06:48.090Z,10.90
2022-11-07T10:07:48.106Z,12.30
2022-11-07T10:08:48.039Z,14.60
2022-11-07T10:09:48.134Z,17.10
2022-11-07T10:10:48.086Z,7.70
2022-11-07T10:11:48.033Z,10.00
2022-11-07T10:12:48.089Z,12.00
2022-11-07T10:13:48.058Z,9.50
2022-11-07T10:14:48.027Z,9.80
2022-11-07T10:15:47.981Z,13.70
2022-11-07T10:16:48.048Z,13.60
2022-11-07T10:17:47.980Z,13.30
2022-11-07T10:18:47.996Z,10.20
2022-11-07T10:19:47.992Z,10.90
2022-11-07T10:20:47.958Z,8.20
2022-11-07T10:21:47.930Z,12.00
2022-11-07T10:22:47.973Z,12.10
2022-11-07T10:23:47.978Z,12.10
2022-11-07T10:24:47.889Z,9.90
2022-11-07T10:25:48.104Z,9.50
2022-11-07T10:26:47.885Z,14.00
2022-11-07T10:27:48.253Z,11.60
2022-11-07T10:28:47.981Z,9.80
2022-11-07T10:29:47.873Z,11.00
2022-11-07T10:30:47.877Z,13.00
2022-11-07T10:31:47.828Z,10.00
2022-11-07T10:32:47.836Z,11.70
2022-11-07T10:33:47.797Z,10.00
2022-11-07T10:34:53.147Z,10.50
2022-11-07T10:35:49.852Z,12.20
2022-11-07T10:36:47.765Z,12.20
2022-11-07T10:37:47.832Z,14.00
2022-11-07T10:38:47.744Z,8.20
2022-11-07T10:39:47.728Z,11.80
2022-11-07T10:40:47.768Z,12.60
2022-11-07T10:41:47.856Z,10.90
2022-11-07T10:42:47.802Z,13.40
2022-11-07T10:43:47.739Z,11.00
2022-11-07T10:44:47.738Z,10.10
2022-11-07T10:45:47.645Z,11.60
2022-11-07T10:46:50.212Z,13.90
2022-11-07T10:47:48.653Z,12.90
2022-11-07T10:48:47.720Z,16.50
2022-11-07T10:49:47.657Z,10.10
2022-11-07T10:50:47.642Z,14.90
2022-11-07T10:51:47.641Z,12.10
2022-11-07T10:52:47.658Z,15.00
2022-11-07T10:53:47.640Z,12.30
2022-11-07T10:54:47.594Z,12.40
2022-11-07T10:55:48.428Z,12.10
2022-11-07T10:56:47.584Z,11.50
2022-11-07T10:57:47.571Z,12.50
2022-11-07T10:58:47.530Z,10.20
2022-11-07T10:59:47.559Z,10.90
2022-11-07T11:00:47.613Z,11.50
2022-11-07T11:01:47.660Z,12.30
2022-11-07T11:02:47.508Z,21.30
2022-11-07T11:03:47.591Z,15.70
2022-11-07T11:04:50.752Z,12.80
2022-11-07T11:05:48.501Z,15.20
2022-11-07T11:06:47.468Z,13.40
2022-11-07T11:07:47.481Z,10.30
2022-11-07T11:08:47.547Z,18.20
2022-11-07T11:09:47.419Z,10.30
2022-11-07T11:10:47.518Z,10.40
2022-11-07T11:11:47.436Z,10.50
2022-11-07T11:12:47.439Z,16.20
2022-11-07T11:13:47.480Z,10.00
2022-11-07T11:14:47.427Z,12.70
2022-11-07T11:15:47.405Z,9.90
2022-11-07T11:16:47.396Z,14.40
2022-11-07T11:17:47.334Z,16.10
2022-11-07T11:18:47.911Z,9.80
2022-11-07T11:19:47.394Z,9.90
2022-11-07T11:20:47.448Z,11.20
2022-11-07T11:21:47.412Z,9.40
2022-11-07T11:22:47.356Z,13.40
2022-11-07T11:23:47.660Z,17.10
2022-11-07T11:24:47.365Z,14.40
2022-11-07T11:25:47.310Z,8.20
2022-11-07T11:26:47.328Z,13.20
2022-11-07T11:27:47.323Z,13.00
2022-11-07T11:28:47.426Z,13.50
2022-11-07T11:29:47.340Z,10.40
2022-11-07T11:30:47.256Z,8.90
2022-11-07T11:31:47.345Z,8.90
2022-11-07T11:32:47.221Z,11.80
2022-11-07T11:33:47.524Z,11.70
2022-11-07T11:34:47.469Z,11.20
2022-11-07T11:35:47.280Z,7.60
2022-11-07T11:36:47.197Z,11.40
2022-11-07T11:37:47.212Z,11.00
2022-11-07T11:38:47.132Z,10.90
2022-11-07T11:39:47.167Z,12.50
2022-11-07T11:40:47.313Z,10.60
2022-11-07T11:41:47.157Z,10.80
2022-11-07T11:42:47.144Z,9.10
2022-11-07T11:43:47.122Z,8.30
2022-11-07T11:44:47.127Z,11.90
2022-11-07T11:45:47.087Z,9.10
2022-11-07T11:46:47.239Z,9.50
2022-11-07T11:47:47.199Z,9.50
2022-11-07T11:48:47.103Z,10.10
2022-11-07T11:49:47.264Z,8.00
2022-11-07T11:50:47.064Z,12.20
2022-11-07T11:51:47.062Z,11.00
2022-11-07T11:52:47.195Z,9.90
2022-11-07T11:53:47.036Z,11.20
2022-11-07T11:54:47.068Z,14.20
2022-11-07T11:55:51.952Z,12.70
2022-11-07T11:56:49.031Z,13.00
2022-11-07T11:57:47.527Z,11.30
2022-11-07T11:58:47.943Z,13.70
2022-11-07T11:59:46.961Z,8.90
2022-11-07T12:00:47.034Z,13.40
2022-11-07T12:01:47.027Z,8.60
2022-11-07T12:02:47.090Z,12.20
2022-11-07T12:03:46.921Z,9.70
2022-11-07T12:04:46.876Z,16.30
2022-11-07T12:05:46.868Z,12.00
2022-11-07T12:06:46.958Z,13.60
2022-11-07T12:07:46.918Z,11.90
2022-11-07T12:08:46.853Z,10.30
2022-11-07T12:09:46.883Z,13.70
2022-11-07T12:10:46.920Z,14.60
2022-11-07T12:11:46.805Z,10.70
2022-11-07T12:12:46.816Z,13.50
2022-11-07T12:13:47.865Z,11.10
2022-11-07T12:14:46.762Z,15.60
2022-11-07T12:15:46.770Z,15.40
2022-11-07T12:16:46.794Z,12.00
2022-11-07T12:17:47.104Z,12.90
2022-11-07T12:18:46.801Z,14.90
2022-11-07T12:19:46.779Z,16.30
2022-11-07T12:20:46.749Z,10.90
2022-11-07T12:21:48.600Z,14.30
2022-11-07T12:22:46.657Z,11.60
2022-11-07T12:23:46.718Z,13.70
2022-11-07T12:24:46.711Z,16.70
2022-11-07T12:25:46.656Z,15.10
2022-11-07T12:26:46.728Z,14.20
2022-11-07T12:27:46.656Z,14.80
2022-11-07T12:28:46.593Z,14.60
2022-11-07T12:29:48.455Z,15.60
2022-11-07T12:30:46.592Z,13.90
2022-11-07T12:31:46.560Z,18.50
2022-11-07T12:32:46.596Z,12.60
2022-11-07T12:33:46.628Z,16.00
2022-11-07T12:34:46.610Z,16.00
2022-11-07T12:35:46.550Z,16.00
2022-11-07T12:36:46.581Z,17.50
2022-11-07T12:37:46.639Z,12.30
2022-11-07T12:38:46.518Z,13.00
2022-11-07T12:39:46.561Z,11.50
2022-11-07T12:40:46.523Z,13.40
2022-11-07T12:41:46.524Z,12.20
2022-11-07T12:42:46.673Z,12.10
2022-11-07T12:43:47.533Z,9.80
2022-11-07T12:44:46.470Z,14.30
2022-11-07T12:45:46.459Z,12.50
2022-11-07T12:46:46.441Z,16.90
2022-11-07T12:47:46.437Z,12.10
2022-11-07T12:48:46.441Z,13.40
2022-11-07T12:49:46.429Z,13.60
2022-11-07T12:50:46.434Z,15.20
2022-11-07T12:51:46.395Z,14.50
2022-11-07T12:52:46.347Z,16.10
2022-11-07T12:53:46.382Z,10.30
2022-11-07T12:54:46.385Z,12.40
2022-11-07T12:55:46.359Z,10.20
2022-11-07T12:56:46.566Z,15.60
2022-11-07T12:57:46.387Z,10.40
2022-11-07T12:58:46.338Z,11.90
2022-11-07T12:59:46.312Z,9.40
2022-11-07T13:00:46.311Z,13.40
2022-11-07T13:01:46.389Z,11.80
2022-11-07T13:02:47.407Z,10.10
2022-11-07T13:03:46.280Z,12.50